sensor_id;sensor_type;location;lat;lon;timestamp;P1;durP1;ratioP1;P2;durP2;ratioP2
12597;SDS011;6364;53.590;9.956;2022-09-09T00:04:38;198.07;;;53.28;;
12597;SDS011;6364;53.590;9.956;2022-09-09T00:07:07;192.15;;;52.60;;
12597;SDS011;6364;53.590;9.956;2022-09-09T00:09:45;185.90;;;49.40;;
12597;SDS011;6364;53.590;9.956;2022-09-09T00:14:56;180.52;;;50.95;;
12597;SDS011;6364;53.590;9.956;2022-09-09T00:17:36;242.57;;;50.25;;
12597;SDS011;6364;53.590;9.956;2022-09-09T00:28:24;240.85;;;48.70;;
12597;SDS011;6364;53.590;9.956;2022-09-09T00:30:51;145.05;;;47.85;;
12597;SDS011;6364;53.590;9.956;2022-09-09T00:33:19;161.43;;;45.92;;
12597;SDS011;6364;53.590;9.956;2022-09-09T00:35:48;246.55;;;47.75;;
12597;SDS011;6364;53.590;9.956;2022-09-09T00:38:17;200.98;;;48.22;;
12597;SDS011;6364;53.590;9.956;2022-09-09T00:43:37;187.13;;;46.47;;
12597;SDS011;6364;53.590;9.956;2022-09-09T00:54:45;234.98;;;45.38;;
12597;SDS011;6364;53.590;9.956;2022-09-09T00:57:31;177.38;;;44.42;;
12597;SDS011;6364;53.590;9.956;2022-09-09T01:00:14;131.93;;;46.13;;
12597;SDS011;6364;53.590;9.956;2022-09-09T01:06:01;146.05;;;46.92;;
12597;SDS011;6364;53.590;9.956;2022-09-09T01:11:19;144.38;;;47.33;;
12597;SDS011;6364;53.590;9.956;2022-09-09T01:13:47;294.70;;;49.88;;
12597;SDS011;6364;53.590;9.956;2022-09-09T01:16:14;196.77;;;50.38;;
12597;SDS011;6364;53.590;9.956;2022-09-09T01:18:44;198.45;;;49.60;;
12597;SDS011;6364;53.590;9.956;2022-09-09T01:26:43;137.80;;;45.15;;
12597;SDS011;6364;53.590;9.956;2022-09-09T01:29:11;185.90;;;46.45;;
12597;SDS011;6364;53.590;9.956;2022-09-09T01:31:40;154.77;;;45.60;;
12597;SDS011;6364;53.590;9.956;2022-09-09T01:34:11;141.70;;;46.22;;
12597;SDS011;6364;53.590;9.956;2022-09-09T01:36:39;278.33;;;46.63;;
12597;SDS011;6364;53.590;9.956;2022-09-09T01:39:18;140.02;;;44.65;;
12597;SDS011;6364;53.590;9.956;2022-09-09T01:41:45;159.80;;;46.05;;
12597;SDS011;6364;53.590;9.956;2022-09-09T01:44:10;171.05;;;46.22;;
12597;SDS011;6364;53.590;9.956;2022-09-09T01:46:36;148.13;;;43.55;;
12597;SDS011;6364;53.590;9.956;2022-09-09T01:49:02;140.23;;;43.10;;
12597;SDS011;6364;53.590;9.956;2022-09-09T01:51:28;147.48;;;43.35;;
12597;SDS011;6364;53.590;9.956;2022-09-09T01:53:53;224.65;;;45.20;;
12597;SDS011;6364;53.590;9.956;2022-09-09T01:56:35;268.17;;;45.42;;
12597;SDS011;6364;53.590;9.956;2022-09-09T02:04:32;113.45;;;39.55;;
12597;SDS011;6364;53.590;9.956;2022-09-09T02:07:11;166.30;;;40.30;;
12597;SDS011;6364;53.590;9.956;2022-09-09T02:09:47;120.93;;;38.92;;
12597;SDS011;6364;53.590;9.956;2022-09-09T02:12:16;117.00;;;38.70;;
12597;SDS011;6364;53.590;9.956;2022-09-09T02:14:47;110.93;;;39.20;;
12597;SDS011;6364;53.590;9.956;2022-09-09T02:17:18;128.55;;;39.83;;
12597;SDS011;6364;53.590;9.956;2022-09-09T02:19:47;111.20;;;39.78;;
12597;SDS011;6364;53.590;9.956;2022-09-09T02:22:16;110.22;;;37.95;;
12597;SDS011;6364;53.590;9.956;2022-09-09T02:24:42;214.82;;;42.35;;
12597;SDS011;6364;53.590;9.956;2022-09-09T02:27:11;125.18;;;38.70;;
12597;SDS011;6364;53.590;9.956;2022-09-09T02:29:41;206.85;;;39.58;;
12597;SDS011;6364;53.590;9.956;2022-09-09T02:32:08;110.63;;;38.50;;
12597;SDS011;6364;53.590;9.956;2022-09-09T02:34:36;136.15;;;39.78;;
12597;SDS011;6364;53.590;9.956;2022-09-09T02:37:06;239.80;;;42.63;;
12597;SDS011;6364;53.590;9.956;2022-09-09T02:39:33;113.07;;;39.25;;
12597;SDS011;6364;53.590;9.956;2022-09-09T02:41:58;121.78;;;39.97;;
12597;SDS011;6364;53.590;9.956;2022-09-09T02:44:24;111.82;;;37.95;;
12597;SDS011;6364;53.590;9.956;2022-09-09T02:55:56;116.45;;;37.40;;
12597;SDS011;6364;53.590;9.956;2022-09-09T02:58:07;133.20;;;36.65;;
12597;SDS011;6364;53.590;9.956;2022-09-09T03:00:36;183.85;;;37.92;;
12597;SDS011;6364;53.590;9.956;2022-09-09T03:03:05;91.13;;;35.40;;
12597;SDS011;6364;53.590;9.956;2022-09-09T03:05:31;93.63;;;36.92;;
12597;SDS011;6364;53.590;9.956;2022-09-09T03:07:57;94.53;;;36.00;;
12597;SDS011;6364;53.590;9.956;2022-09-09T03:10:23;97.45;;;36.38;;
12597;SDS011;6364;53.590;9.956;2022-09-09T03:12:48;126.05;;;38.03;;
12597;SDS011;6364;53.590;9.956;2022-09-09T03:15:13;97.63;;;37.13;;
12597;SDS011;6364;53.590;9.956;2022-09-09T03:17:39;84.50;;;34.75;;
12597;SDS011;6364;53.590;9.956;2022-09-09T03:20:06;113.55;;;35.83;;
12597;SDS011;6364;53.590;9.956;2022-09-09T03:22:32;84.93;;;34.10;;
12597;SDS011;6364;53.590;9.956;2022-09-09T03:24:58;109.68;;;35.55;;
12597;SDS011;6364;53.590;9.956;2022-09-09T03:27:23;115.18;;;35.30;;
12597;SDS011;6364;53.590;9.956;2022-09-09T03:29:48;86.15;;;35.60;;
12597;SDS011;6364;53.590;9.956;2022-09-09T03:32:16;136.23;;;35.38;;
12597;SDS011;6364;53.590;9.956;2022-09-09T03:34:42;115.65;;;35.97;;
12597;SDS011;6364;53.590;9.956;2022-09-09T03:37:08;84.55;;;33.95;;
12597;SDS011;6364;53.590;9.956;2022-09-09T03:39:33;121.28;;;36.17;;
12597;SDS011;6364;53.590;9.956;2022-09-09T03:41:58;75.65;;;32.95;;
12597;SDS011;6364;53.590;9.956;2022-09-09T03:44:24;75.18;;;31.63;;
12597;SDS011;6364;53.590;9.956;2022-09-09T03:46:49;73.63;;;31.23;;
12597;SDS011;6364;53.590;9.956;2022-09-09T03:49:15;75.85;;;31.52;;
12597;SDS011;6364;53.590;9.956;2022-09-09T03:51:40;109.95;;;31.23;;
12597;SDS011;6364;53.590;9.956;2022-09-09T03:54:06;193.68;;;33.28;;
12597;SDS011;6364;53.590;9.956;2022-09-09T03:56:33;64.47;;;30.02;;
12597;SDS011;6364;53.590;9.956;2022-09-09T03:58:59;74.85;;;31.13;;
12597;SDS011;6364;53.590;9.956;2022-09-09T04:01:25;56.78;;;28.27;;
12597;SDS011;6364;53.590;9.956;2022-09-09T04:03:51;67.97;;;29.92;;
12597;SDS011;6364;53.590;9.956;2022-09-09T04:06:17;61.88;;;28.48;;
12597;SDS011;6364;53.590;9.956;2022-09-09T04:08:44;68.40;;;30.50;;
12597;SDS011;6364;53.590;9.956;2022-09-09T04:11:10;68.97;;;30.75;;
12597;SDS011;6364;53.590;9.956;2022-09-09T04:13:36;68.93;;;30.15;;
12597;SDS011;6364;53.590;9.956;2022-09-09T04:16:04;77.85;;;30.15;;
12597;SDS011;6364;53.590;9.956;2022-09-09T04:18:30;61.25;;;27.85;;
12597;SDS011;6364;53.590;9.956;2022-09-09T04:20:55;74.80;;;30.45;;
12597;SDS011;6364;53.590;9.956;2022-09-09T04:23:22;65.35;;;30.40;;
12597;SDS011;6364;53.590;9.956;2022-09-09T04:25:52;67.82;;;29.67;;
12597;SDS011;6364;53.590;9.956;2022-09-09T04:28:19;59.33;;;28.92;;
12597;SDS011;6364;53.590;9.956;2022-09-09T04:30:46;67.93;;;30.75;;
12597;SDS011;6364;53.590;9.956;2022-09-09T04:33:12;75.07;;;29.63;;
12597;SDS011;6364;53.590;9.956;2022-09-09T04:35:38;64.70;;;29.02;;
12597;SDS011;6364;53.590;9.956;2022-09-09T04:38:03;61.78;;;29.15;;
12597;SDS011;6364;53.590;9.956;2022-09-09T04:40:30;107.10;;;43.65;;
12597;SDS011;6364;53.590;9.956;2022-09-09T04:42:59;70.40;;;34.45;;
12597;SDS011;6364;53.590;9.956;2022-09-09T04:45:25;62.97;;;31.77;;
12597;SDS011;6364;53.590;9.956;2022-09-09T04:47:51;64.45;;;30.77;;
12597;SDS011;6364;53.590;9.956;2022-09-09T04:50:17;73.90;;;30.55;;
12597;SDS011;6364;53.590;9.956;2022-09-09T04:52:43;64.82;;;30.20;;
12597;SDS011;6364;53.590;9.956;2022-09-09T04:55:09;62.05;;;28.75;;
12597;SDS011;6364;53.590;9.956;2022-09-09T04:57:34;58.47;;;27.42;;
12597;SDS011;6364;53.590;9.956;2022-09-09T05:00:00;59.95;;;27.75;;
12597;SDS011;6364;53.590;9.956;2022-09-09T05:02:26;53.42;;;26.45;;
12597;SDS011;6364;53.590;9.956;2022-09-09T05:04:52;51.97;;;26.13;;
12597;SDS011;6364;53.590;9.956;2022-09-09T05:07:17;61.40;;;26.17;;
12597;SDS011;6364;53.590;9.956;2022-09-09T05:09:42;56.58;;;26.45;;
12597;SDS011;6364;53.590;9.956;2022-09-09T05:12:08;53.47;;;25.55;;
12597;SDS011;6364;53.590;9.956;2022-09-09T05:14:33;62.47;;;25.58;;
12597;SDS011;6364;53.590;9.956;2022-09-09T05:17:01;45.03;;;23.52;;
12597;SDS011;6364;53.590;9.956;2022-09-09T05:19:26;51.08;;;24.35;;
12597;SDS011;6364;53.590;9.956;2022-09-09T05:21:51;44.15;;;22.88;;
12597;SDS011;6364;53.590;9.956;2022-09-09T05:24:17;44.00;;;22.25;;
12597;SDS011;6364;53.590;9.956;2022-09-09T05:26:42;41.47;;;22.30;;
12597;SDS011;6364;53.590;9.956;2022-09-09T05:29:08;39.50;;;22.50;;
12597;SDS011;6364;53.590;9.956;2022-09-09T05:31:33;45.38;;;23.42;;
12597;SDS011;6364;53.590;9.956;2022-09-09T05:33:59;44.97;;;22.60;;
12597;SDS011;6364;53.590;9.956;2022-09-09T05:36:25;44.47;;;21.45;;
12597;SDS011;6364;53.590;9.956;2022-09-09T05:38:50;37.95;;;20.77;;
12597;SDS011;6364;53.590;9.956;2022-09-09T05:41:16;34.33;;;20.38;;
12597;SDS011;6364;53.590;9.956;2022-09-09T05:43:42;42.10;;;22.08;;
12597;SDS011;6364;53.590;9.956;2022-09-09T05:46:12;40.85;;;20.58;;
12597;SDS011;6364;53.590;9.956;2022-09-09T05:48:40;38.47;;;21.67;;
12597;SDS011;6364;53.590;9.956;2022-09-09T05:51:07;36.50;;;21.00;;
12597;SDS011;6364;53.590;9.956;2022-09-09T05:53:34;34.60;;;19.60;;
12597;SDS011;6364;53.590;9.956;2022-09-09T05:56:03;35.08;;;19.90;;
12597;SDS011;6364;53.590;9.956;2022-09-09T05:58:34;34.30;;;19.65;;
12597;SDS011;6364;53.590;9.956;2022-09-09T06:01:21;33.70;;;19.88;;
12597;SDS011;6364;53.590;9.956;2022-09-09T06:03:47;36.97;;;20.63;;
12597;SDS011;6364;53.590;9.956;2022-09-09T06:06:14;34.08;;;19.65;;
12597;SDS011;6364;53.590;9.956;2022-09-09T06:08:42;35.80;;;19.83;;
12597;SDS011;6364;53.590;9.956;2022-09-09T06:11:19;30.55;;;19.02;;
12597;SDS011;6364;53.590;9.956;2022-09-09T06:13:46;31.65;;;18.17;;
12597;SDS011;6364;53.590;9.956;2022-09-09T06:16:13;32.58;;;18.48;;
12597;SDS011;6364;53.590;9.956;2022-09-09T06:18:40;30.15;;;19.23;;
12597;SDS011;6364;53.590;9.956;2022-09-09T06:21:07;33.28;;;18.95;;
12597;SDS011;6364;53.590;9.956;2022-09-09T06:23:40;33.35;;;18.50;;
12597;SDS011;6364;53.590;9.956;2022-09-09T06:26:07;35.15;;;18.50;;
12597;SDS011;6364;53.590;9.956;2022-09-09T06:28:35;29.05;;;18.50;;
12597;SDS011;6364;53.590;9.956;2022-09-09T06:31:02;32.63;;;17.55;;
12597;SDS011;6364;53.590;9.956;2022-09-09T06:33:36;28.98;;;18.17;;
12597;SDS011;6364;53.590;9.956;2022-09-09T06:36:06;28.92;;;17.88;;
12597;SDS011;6364;53.590;9.956;2022-09-09T06:38:36;26.63;;;17.23;;
12597;SDS011;6364;53.590;9.956;2022-09-09T06:41:02;28.48;;;17.00;;
12597;SDS011;6364;53.590;9.956;2022-09-09T06:43:28;26.63;;;16.45;;
12597;SDS011;6364;53.590;9.956;2022-09-09T06:45:57;28.20;;;17.17;;
12597;SDS011;6364;53.590;9.956;2022-09-09T06:48:24;27.20;;;15.80;;
12597;SDS011;6364;53.590;9.956;2022-09-09T06:53:32;22.98;;;15.98;;
12597;SDS011;6364;53.590;9.956;2022-09-09T06:56:02;25.48;;;16.48;;
12597;SDS011;6364;53.590;9.956;2022-09-09T06:58:28;25.90;;;17.48;;
12597;SDS011;6364;53.590;9.956;2022-09-09T07:01:06;33.63;;;17.23;;
12597;SDS011;6364;53.590;9.956;2022-09-09T07:03:31;27.85;;;16.45;;
12597;SDS011;6364;53.590;9.956;2022-09-09T07:05:57;23.98;;;16.58;;
12597;SDS011;6364;53.590;9.956;2022-09-09T07:08:24;28.38;;;15.82;;
12597;SDS011;6364;53.590;9.956;2022-09-09T07:10:50;29.30;;;16.35;;
12597;SDS011;6364;53.590;9.956;2022-09-09T07:13:18;27.73;;;16.08;;
12597;SDS011;6364;53.590;9.956;2022-09-09T07:15:50;24.05;;;14.80;;
12597;SDS011;6364;53.590;9.956;2022-09-09T07:18:17;22.52;;;14.82;;
12597;SDS011;6364;53.590;9.956;2022-09-09T07:20:42;20.10;;;13.40;;
12597;SDS011;6364;53.590;9.956;2022-09-09T07:23:07;26.55;;;13.75;;
12597;SDS011;6364;53.590;9.956;2022-09-09T07:25:33;19.73;;;12.30;;
12597;SDS011;6364;53.590;9.956;2022-09-09T07:27:58;23.98;;;12.65;;
12597;SDS011;6364;53.590;9.956;2022-09-09T07:30:27;18.77;;;11.95;;
12597;SDS011;6364;53.590;9.956;2022-09-09T07:32:53;17.25;;;11.60;;
12597;SDS011;6364;53.590;9.956;2022-09-09T07:35:21;20.92;;;11.40;;
12597;SDS011;6364;53.590;9.956;2022-09-09T07:37:47;17.85;;;11.45;;
12597;SDS011;6364;53.590;9.956;2022-09-09T07:40:12;15.98;;;10.45;;
12597;SDS011;6364;53.590;9.956;2022-09-09T07:42:37;15.25;;;9.70;;
12597;SDS011;6364;53.590;9.956;2022-09-09T07:45:03;14.38;;;9.93;;
12597;SDS011;6364;53.590;9.956;2022-09-09T07:47:33;13.77;;;8.82;;
12597;SDS011;6364;53.590;9.956;2022-09-09T07:49:58;13.85;;;8.02;;
12597;SDS011;6364;53.590;9.956;2022-09-09T07:52:23;13.13;;;7.28;;
12597;SDS011;6364;53.590;9.956;2022-09-09T07:54:49;9.57;;;6.70;;
12597;SDS011;6364;53.590;9.956;2022-09-09T07:57:14;11.98;;;6.45;;
12597;SDS011;6364;53.590;9.956;2022-09-09T07:59:41;12.68;;;6.20;;
12597;SDS011;6364;53.590;9.956;2022-09-09T08:02:08;13.48;;;6.35;;
12597;SDS011;6364;53.590;9.956;2022-09-09T08:04:34;11.00;;;6.18;;
12597;SDS011;6364;53.590;9.956;2022-09-09T08:07:00;9.90;;;6.65;;
12597;SDS011;6364;53.590;9.956;2022-09-09T08:09:26;9.90;;;5.95;;
12597;SDS011;6364;53.590;9.956;2022-09-09T08:11:54;12.05;;;6.18;;
12597;SDS011;6364;53.590;9.956;2022-09-09T08:14:21;11.05;;;5.90;;
12597;SDS011;6364;53.590;9.956;2022-09-09T08:16:48;9.45;;;5.68;;
12597;SDS011;6364;53.590;9.956;2022-09-09T08:19:14;10.50;;;5.63;;
12597;SDS011;6364;53.590;9.956;2022-09-09T08:21:40;9.82;;;5.60;;
12597;SDS011;6364;53.590;9.956;2022-09-09T08:24:07;8.68;;;4.88;;
12597;SDS011;6364;53.590;9.956;2022-09-09T08:26:36;7.35;;;5.43;;
12597;SDS011;6364;53.590;9.956;2022-09-09T08:29:07;10.18;;;5.28;;
12597;SDS011;6364;53.590;9.956;2022-09-09T08:31:45;6.05;;;4.20;;
12597;SDS011;6364;53.590;9.956;2022-09-09T08:34:12;7.10;;;3.63;;
12597;SDS011;6364;53.590;9.956;2022-09-09T08:36:38;8.73;;;4.25;;
12597;SDS011;6364;53.590;9.956;2022-09-09T08:39:07;7.25;;;4.55;;
12597;SDS011;6364;53.590;9.956;2022-09-09T08:52:14;6.90;;;3.40;;
12597;SDS011;6364;53.590;9.956;2022-09-09T08:54:43;9.10;;;3.70;;
12597;SDS011;6364;53.590;9.956;2022-09-09T08:57:11;6.13;;;3.20;;
12597;SDS011;6364;53.590;9.956;2022-09-09T08:59:40;5.82;;;2.95;;
12597;SDS011;6364;53.590;9.956;2022-09-09T09:04:54;6.50;;;2.88;;
12597;SDS011;6364;53.590;9.956;2022-09-09T09:15:58;7.97;;;2.90;;
12597;SDS011;6364;53.590;9.956;2022-09-09T09:18:26;8.25;;;2.83;;
12597;SDS011;6364;53.590;9.956;2022-09-09T09:23:33;5.60;;;2.60;;
12597;SDS011;6364;53.590;9.956;2022-09-09T09:26:09;4.72;;;2.95;;
12597;SDS011;6364;53.590;9.956;2022-09-09T09:28:36;5.72;;;2.80;;
12597;SDS011;6364;53.590;9.956;2022-09-09T09:33:53;4.90;;;2.85;;
12597;SDS011;6364;53.590;9.956;2022-09-09T09:36:33;6.80;;;2.72;;
12597;SDS011;6364;53.590;9.956;2022-09-09T09:39:01;4.40;;;2.70;;
12597;SDS011;6364;53.590;9.956;2022-09-09T09:41:29;6.65;;;2.90;;
12597;SDS011;6364;53.590;9.956;2022-09-09T09:43:55;6.45;;;2.30;;
12597;SDS011;6364;53.590;9.956;2022-09-09T09:46:21;6.82;;;2.72;;
12597;SDS011;6364;53.590;9.956;2022-09-09T09:49:02;4.75;;;2.30;;
12597;SDS011;6364;53.590;9.956;2022-09-09T09:51:30;4.70;;;2.42;;
12597;SDS011;6364;53.590;9.956;2022-09-09T09:56:48;7.88;;;2.30;;
12597;SDS011;6364;53.590;9.956;2022-09-09T10:02:59;3.88;;;2.45;;
12597;SDS011;6364;53.590;9.956;2022-09-09T10:05:03;4.95;;;2.60;;
12597;SDS011;6364;53.590;9.956;2022-09-09T10:07:31;4.70;;;1.98;;
12597;SDS011;6364;53.590;9.956;2022-09-09T10:09:58;4.28;;;2.38;;
12597;SDS011;6364;53.590;9.956;2022-09-09T10:17:58;5.90;;;1.98;;
12597;SDS011;6364;53.590;9.956;2022-09-09T10:31:46;4.78;;;1.75;;
12597;SDS011;6364;53.590;9.956;2022-09-09T10:36:53;6.25;;;2.05;;
12597;SDS011;6364;53.590;9.956;2022-09-09T10:42:06;4.32;;;1.90;;
12597;SDS011;6364;53.590;9.956;2022-09-09T10:50:42;6.82;;;1.80;;
12597;SDS011;6364;53.590;9.956;2022-09-09T10:53:26;5.28;;;1.98;;
12597;SDS011;6364;53.590;9.956;2022-09-09T10:55:59;5.07;;;1.90;;
12597;SDS011;6364;53.590;9.956;2022-09-09T10:58:36;6.47;;;1.77;;
12597;SDS011;6364;53.590;9.956;2022-09-09T11:01:09;5.05;;;2.00;;
12597;SDS011;6364;53.590;9.956;2022-09-09T11:03:41;2.28;;;1.80;;
12597;SDS011;6364;53.590;9.956;2022-09-09T11:06:15;5.43;;;1.98;;
12597;SDS011;6364;53.590;9.956;2022-09-09T11:08:44;3.03;;;1.63;;
12597;SDS011;6364;53.590;9.956;2022-09-09T11:11:12;5.35;;;1.70;;
12597;SDS011;6364;53.590;9.956;2022-09-09T11:13:55;5.35;;;1.95;;
12597;SDS011;6364;53.590;9.956;2022-09-09T11:16:29;4.65;;;1.48;;
12597;SDS011;6364;53.590;9.956;2022-09-09T11:19:00;4.90;;;1.80;;
12597;SDS011;6364;53.590;9.956;2022-09-09T11:21:37;4.07;;;1.60;;
12597;SDS011;6364;53.590;9.956;2022-09-09T11:24:05;3.35;;;1.23;;
12597;SDS011;6364;53.590;9.956;2022-09-09T11:26:39;5.38;;;1.50;;
12597;SDS011;6364;53.590;9.956;2022-09-09T11:37:40;4.47;;;1.63;;
12597;SDS011;6364;53.590;9.956;2022-09-09T11:40:16;3.17;;;1.77;;
12597;SDS011;6364;53.590;9.956;2022-09-09T11:42:44;2.97;;;1.58;;
12597;SDS011;6364;53.590;9.956;2022-09-09T11:45:11;3.50;;;1.77;;
12597;SDS011;6364;53.590;9.956;2022-09-09T11:47:52;3.88;;;1.45;;
12597;SDS011;6364;53.590;9.956;2022-09-09T11:52:50;2.88;;;1.70;;
12597;SDS011;6364;53.590;9.956;2022-09-09T11:58:00;5.78;;;1.58;;
12597;SDS011;6364;53.590;9.956;2022-09-09T12:03:02;4.57;;;1.23;;
12597;SDS011;6364;53.590;9.956;2022-09-09T12:05:41;3.60;;;1.63;;
12597;SDS011;6364;53.590;9.956;2022-09-09T12:08:11;5.03;;;1.80;;
12597;SDS011;6364;53.590;9.956;2022-09-09T12:10:52;6.45;;;1.95;;
12597;SDS011;6364;53.590;9.956;2022-09-09T12:13:22;6.88;;;1.80;;
12597;SDS011;6364;53.590;9.956;2022-09-09T12:24:02;7.00;;;2.00;;
12597;SDS011;6364;53.590;9.956;2022-09-09T12:29:23;5.05;;;2.08;;
12597;SDS011;6364;53.590;9.956;2022-09-09T12:32:00;8.05;;;2.00;;
12597;SDS011;6364;53.590;9.956;2022-09-09T12:34:40;5.50;;;2.20;;
12597;SDS011;6364;53.590;9.956;2022-09-09T12:39:55;8.10;;;2.65;;
12597;SDS011;6364;53.590;9.956;2022-09-09T12:42:22;8.88;;;2.20;;
12597;SDS011;6364;53.590;9.956;2022-09-09T12:45:02;5.82;;;1.70;;
12597;SDS011;6364;53.590;9.956;2022-09-09T12:47:41;7.50;;;1.80;;
12597;SDS011;6364;53.590;9.956;2022-09-09T12:55:48;2.78;;;1.90;;
12597;SDS011;6364;53.590;9.956;2022-09-09T12:58:15;6.97;;;2.78;;
12597;SDS011;6364;53.590;9.956;2022-09-09T13:00:48;5.32;;;2.00;;
12597;SDS011;6364;53.590;9.956;2022-09-09T13:03:17;5.47;;;2.40;;
12597;SDS011;6364;53.590;9.956;2022-09-09T13:05:43;6.15;;;2.15;;
12597;SDS011;6364;53.590;9.956;2022-09-09T13:08:09;8.38;;;2.70;;
12597;SDS011;6364;53.590;9.956;2022-09-09T13:10:40;4.63;;;2.53;;
12597;SDS011;6364;53.590;9.956;2022-09-09T13:13:16;4.18;;;2.50;;
12597;SDS011;6364;53.590;9.956;2022-09-09T13:15:49;6.22;;;3.08;;
12597;SDS011;6364;53.590;9.956;2022-09-09T13:20:54;5.63;;;2.50;;
12597;SDS011;6364;53.590;9.956;2022-09-09T13:23:22;7.95;;;3.25;;
12597;SDS011;6364;53.590;9.956;2022-09-09T13:26:04;4.40;;;2.90;;
12597;SDS011;6364;53.590;9.956;2022-09-09T13:28:33;8.40;;;3.63;;
12597;SDS011;6364;53.590;9.956;2022-09-09T13:31:04;8.40;;;2.60;;
12597;SDS011;6364;53.590;9.956;2022-09-09T13:36:07;6.50;;;2.95;;
12597;SDS011;6364;53.590;9.956;2022-09-09T13:38:52;6.10;;;1.75;;
12597;SDS011;6364;53.590;9.956;2022-09-09T13:41:21;6.57;;;2.35;;
12597;SDS011;6364;53.590;9.956;2022-09-09T13:43:48;5.78;;;2.70;;
12597;SDS011;6364;53.590;9.956;2022-09-09T13:46:30;7.15;;;2.65;;
12597;SDS011;6364;53.590;9.956;2022-09-09T13:49:35;9.55;;;3.70;;
12597;SDS011;6364;53.590;9.956;2022-09-09T13:52:04;8.95;;;4.90;;
12597;SDS011;6364;53.590;9.956;2022-09-09T13:54:37;9.25;;;4.85;;
12597;SDS011;6364;53.590;9.956;2022-09-09T13:57:02;11.68;;;5.63;;
12597;SDS011;6364;53.590;9.956;2022-09-09T13:59:29;7.38;;;5.60;;
12597;SDS011;6364;53.590;9.956;2022-09-09T14:01:54;12.90;;;6.63;;
12597;SDS011;6364;53.590;9.956;2022-09-09T14:04:19;12.13;;;6.45;;
12597;SDS011;6364;53.590;9.956;2022-09-09T14:06:48;13.02;;;7.40;;
12597;SDS011;6364;53.590;9.956;2022-09-09T14:09:15;12.02;;;7.43;;
12597;SDS011;6364;53.590;9.956;2022-09-09T14:11:41;12.05;;;8.13;;
12597;SDS011;6364;53.590;9.956;2022-09-09T14:14:07;13.65;;;7.72;;
12597;SDS011;6364;53.590;9.956;2022-09-09T14:16:34;19.27;;;9.38;;
12597;SDS011;6364;53.590;9.956;2022-09-09T14:18:59;14.63;;;8.82;;
12597;SDS011;6364;53.590;9.956;2022-09-09T14:21:26;16.42;;;9.30;;
12597;SDS011;6364;53.590;9.956;2022-09-09T14:23:52;17.58;;;9.10;;
12597;SDS011;6364;53.590;9.956;2022-09-09T14:26:18;15.02;;;9.88;;
12597;SDS011;6364;53.590;9.956;2022-09-09T14:28:45;13.23;;;9.25;;
12597;SDS011;6364;53.590;9.956;2022-09-09T14:31:14;12.40;;;8.00;;
12597;SDS011;6364;53.590;9.956;2022-09-09T14:33:42;11.48;;;9.00;;
12597;SDS011;6364;53.590;9.956;2022-09-09T14:36:17;8.63;;;7.60;;
12597;SDS011;6364;53.590;9.956;2022-09-09T14:38:59;12.00;;;8.35;;
12597;SDS011;6364;53.590;9.956;2022-09-09T14:41:31;12.07;;;8.65;;
12597;SDS011;6364;53.590;9.956;2022-09-09T14:44:06;13.68;;;8.10;;
12597;SDS011;6364;53.590;9.956;2022-09-09T14:46:33;13.65;;;8.60;;
12597;SDS011;6364;53.590;9.956;2022-09-09T14:49:43;13.80;;;8.98;;
12597;SDS011;6364;53.590;9.956;2022-09-09T14:56:10;15.43;;;8.50;;
12597;SDS011;6364;53.590;9.956;2022-09-09T14:59:25;15.73;;;7.05;;
12597;SDS011;6364;53.590;9.956;2022-09-09T15:02:33;7.72;;;6.78;;
12597;SDS011;6364;53.590;9.956;2022-09-09T15:05:43;15.90;;;7.05;;
12597;SDS011;6364;53.590;9.956;2022-09-09T15:08:40;10.80;;;6.68;;
12597;SDS011;6364;53.590;9.956;2022-09-09T15:14:34;11.10;;;5.75;;
12597;SDS011;6364;53.590;9.956;2022-09-09T15:20:55;8.55;;;4.97;;
12597;SDS011;6364;53.590;9.956;2022-09-09T15:23:33;6.45;;;5.05;;
12597;SDS011;6364;53.590;9.956;2022-09-09T15:26:13;6.47;;;4.78;;
12597;SDS011;6364;53.590;9.956;2022-09-09T15:29:26;8.23;;;5.20;;
12597;SDS011;6364;53.590;9.956;2022-09-09T15:31:53;9.98;;;5.20;;
12597;SDS011;6364;53.590;9.956;2022-09-09T15:34:19;9.65;;;5.47;;
12597;SDS011;6364;53.590;9.956;2022-09-09T15:36:45;8.77;;;5.60;;
12597;SDS011;6364;53.590;9.956;2022-09-09T15:39:11;6.50;;;5.60;;
12597;SDS011;6364;53.590;9.956;2022-09-09T15:41:40;13.20;;;6.07;;
12597;SDS011;6364;53.590;9.956;2022-09-09T15:44:06;10.70;;;6.10;;
12597;SDS011;6364;53.590;9.956;2022-09-09T15:46:32;12.65;;;6.13;;
12597;SDS011;6364;53.590;9.956;2022-09-09T15:49:05;9.07;;;6.45;;
12597;SDS011;6364;53.590;9.956;2022-09-09T15:51:31;14.10;;;8.07;;
12597;SDS011;6364;53.590;9.956;2022-09-09T15:53:59;14.07;;;7.13;;
12597;SDS011;6364;53.590;9.956;2022-09-09T15:56:25;12.20;;;7.38;;
12597;SDS011;6364;53.590;9.956;2022-09-09T15:58:53;11.43;;;6.43;;
12597;SDS011;6364;53.590;9.956;2022-09-09T16:01:18;9.85;;;7.28;;
12597;SDS011;6364;53.590;9.956;2022-09-09T16:03:44;11.20;;;5.95;;
12597;SDS011;6364;53.590;9.956;2022-09-09T16:06:11;8.02;;;4.03;;
12597;SDS011;6364;53.590;9.956;2022-09-09T16:08:39;11.65;;;4.22;;
12597;SDS011;6364;53.590;9.956;2022-09-09T16:11:13;6.78;;;3.47;;
12597;SDS011;6364;53.590;9.956;2022-09-09T16:13:40;6.53;;;3.60;;
12597;SDS011;6364;53.590;9.956;2022-09-09T16:16:06;8.50;;;3.38;;
12597;SDS011;6364;53.590;9.956;2022-09-09T16:18:36;7.80;;;3.25;;
12597;SDS011;6364;53.590;9.956;2022-09-09T16:21:02;6.72;;;3.50;;
12597;SDS011;6364;53.590;9.956;2022-09-09T16:23:30;8.93;;;3.33;;
12597;SDS011;6364;53.590;9.956;2022-09-09T16:25:56;6.68;;;3.90;;
12597;SDS011;6364;53.590;9.956;2022-09-09T16:28:21;4.07;;;3.22;;
12597;SDS011;6364;53.590;9.956;2022-09-09T16:30:47;7.95;;;3.22;;
12597;SDS011;6364;53.590;9.956;2022-09-09T16:33:12;5.75;;;3.38;;
12597;SDS011;6364;53.590;9.956;2022-09-09T16:35:39;4.35;;;3.20;;
12597;SDS011;6364;53.590;9.956;2022-09-09T16:38:05;4.57;;;3.67;;
12597;SDS011;6364;53.590;9.956;2022-09-09T16:40:33;7.25;;;4.05;;
12597;SDS011;6364;53.590;9.956;2022-09-09T16:43:05;9.55;;;4.40;;
12597;SDS011;6364;53.590;9.956;2022-09-09T16:45:31;8.70;;;4.57;;
12597;SDS011;6364;53.590;9.956;2022-09-09T16:47:57;9.73;;;4.43;;
12597;SDS011;6364;53.590;9.956;2022-09-09T16:50:23;8.95;;;4.80;;
12597;SDS011;6364;53.590;9.956;2022-09-09T16:52:49;7.25;;;4.22;;
12597;SDS011;6364;53.590;9.956;2022-09-09T16:55:16;6.10;;;4.40;;
12597;SDS011;6364;53.590;9.956;2022-09-09T16:57:41;4.68;;;3.35;;
12597;SDS011;6364;53.590;9.956;2022-09-09T17:00:07;6.68;;;3.67;;
12597;SDS011;6364;53.590;9.956;2022-09-09T17:02:33;7.63;;;3.70;;
12597;SDS011;6364;53.590;9.956;2022-09-09T17:04:58;5.50;;;3.40;;
12597;SDS011;6364;53.590;9.956;2022-09-09T17:07:24;5.20;;;3.70;;
12597;SDS011;6364;53.590;9.956;2022-09-09T17:09:49;10.32;;;3.28;;
12597;SDS011;6364;53.590;9.956;2022-09-09T17:12:15;5.63;;;3.33;;
12597;SDS011;6364;53.590;9.956;2022-09-09T17:14:41;6.72;;;3.38;;
12597;SDS011;6364;53.590;9.956;2022-09-09T17:17:19;4.72;;;2.90;;
12597;SDS011;6364;53.590;9.956;2022-09-09T17:19:46;5.78;;;3.33;;
12597;SDS011;6364;53.590;9.956;2022-09-09T17:22:11;4.55;;;3.08;;
12597;SDS011;6364;53.590;9.956;2022-09-09T17:24:36;4.35;;;3.75;;
12597;SDS011;6364;53.590;9.956;2022-09-09T17:27:03;9.40;;;4.45;;
12597;SDS011;6364;53.590;9.956;2022-09-09T17:29:28;7.13;;;4.00;;
12597;SDS011;6364;53.590;9.956;2022-09-09T17:31:54;8.85;;;4.40;;
12597;SDS011;6364;53.590;9.956;2022-09-09T17:34:20;5.57;;;4.13;;
12597;SDS011;6364;53.590;9.956;2022-09-09T17:36:45;8.00;;;4.18;;
12597;SDS011;6364;53.590;9.956;2022-09-09T17:39:11;6.40;;;4.60;;
12597;SDS011;6364;53.590;9.956;2022-09-09T17:41:37;8.88;;;4.72;;
12597;SDS011;6364;53.590;9.956;2022-09-09T17:44:04;8.30;;;4.95;;
12597;SDS011;6364;53.590;9.956;2022-09-09T17:46:42;7.80;;;5.22;;